Time;durP1;ratioP1;P1;durP2;ratioP2;P2;SDS_P1;SDS_P2;PMS_P1;PMS_P2;Temp;Humidity;BMP_temperature;BMP_pressure;BME280_temperature;BME280_humidity;BME280_pressure;Samples;Min_cycle;Max_cycle;Signal;HPM_P1;HPM_P2
2022/03/12 00:05:25;;;;;;;1.10;1.03;;;12.80;99.90;;;;;;26069426;22;20195;-69
2022/03/12 00:15:35;;;;;;;0.20;0.10;;;12.60;99.90;;;;;;26070080;22;20192;-70
2022/03/12 00:25:42;;;;;;;0.20;0.00;;;12.60;99.90;;;;;;26041666;22;20180;-74
2022/03/12 00:35:48;;;;;;;0.20;0.10;;;12.60;99.90;;;;;;26040912;22;20212;-74
2022/03/12 00:45:53;;;;;;;0.20;0.10;;;12.60;99.90;;;;;;26040225;22;20199;-75
2022/03/12 00:55:57;;;;;;;0.20;0.00;;;12.60;99.90;;;;;;26068087;22;20160;-77
2022/03/12 01:06:04;;;;;;;0.20;0.10;;;12.40;99.90;;;;;;26067374;22;20212;-75
2022/03/12 01:16:09;;;;;;;0.20;0.10;;;12.30;99.90;;;;;;26041324;22;20192;-76
2022/03/12 01:26:15;;;;;;;0.20;0.00;;;12.10;99.90;;;;;;26067507;22;20180;-75
2022/03/12 01:36:19;;;;;;;0.20;0.10;;;12.20;99.90;;;;;;26040095;22;20207;-79
2022/03/12 01:46:32;;;;;;;0.20;0.10;;;12.20;99.90;;;;;;26049048;22;20188;-65
2022/03/12 01:56:38;;;;;;;0.20;0.00;;;12.10;99.90;;;;;;26075545;22;20147;-63
2022/03/12 02:06:45;;;;;;;0.20;0.00;;;12.10;99.90;;;;;;26075130;22;20272;-64
2022/03/12 02:16:50;;;;;;;0.20;0.10;;;12.20;99.90;;;;;;26074831;22;20188;-64
2022/03/12 02:26:57;;;;;;;0.20;0.00;;;12.30;99.90;;;;;;26047501;22;20180;-63
2022/03/12 02:37:01;;;;;;;0.20;0.10;;;12.60;99.90;;;;;;26073460;22;20192;-80
2022/03/12 02:47:13;;;;;;;0.20;0.10;;;12.90;99.90;;;;;;26073541;22;20211;-79
2022/03/12 02:57:19;;;;;;;0.20;0.10;;;13.00;99.90;;;;;;26074388;22;20148;-70
2022/03/12 03:07:24;;;;;;;0.20;0.00;;;13.00;99.90;;;;;;26076789;22;20195;-71
2022/03/12 03:17:29;;;;;;;0.20;0.00;;;13.00;99.90;;;;;;26076624;22;20184;-71
2022/03/12 03:27:34;;;;;;;0.20;0.00;;;13.00;99.90;;;;;;26076091;22;20180;-71
2022/03/12 03:37:37;;;;;;;0.20;0.10;;;13.00;99.90;;;;;;26074156;22;20190;-71
2022/03/12 03:47:43;;;;;;;0.20;0.00;;;12.90;99.90;;;;;;26075126;22;20195;-71
2022/03/12 03:57:47;;;;;;;0.20;0.00;;;12.90;99.90;;;;;;26074463;22;20168;-70
2022/03/12 04:07:52;;;;;;;0.20;0.00;;;13.00;99.90;;;;;;26047756;22;20191;-71
2022/03/12 04:17:57;;;;;;;0.20;0.00;;;13.00;99.90;;;;;;26047044;22;20188;-70
2022/03/12 04:28:02;;;;;;;0.20;0.00;;;13.00;99.90;;;;;;26073131;22;20194;-71
2022/03/12 04:38:09;;;;;;;0.20;0.00;;;13.00;99.90;;;;;;26072423;22;20203;-70
2022/03/12 04:48:16;;;;;;;0.20;0.00;;;13.00;99.90;;;;;;26072909;22;20282;-69
2022/03/12 04:58:21;;;;;;;0.20;0.10;;;13.00;99.90;;;;;;26071361;22;20164;-70
2022/03/12 05:08:30;;;;;;;0.20;0.00;;;13.00;99.90;;;;;;26042169;22;20184;-71
2022/03/12 05:18:36;;;;;;;0.20;0.10;;;13.00;99.90;;;;;;26069727;22;20184;-71
2022/03/12 05:28:41;;;;;;;0.20;0.00;;;13.00;99.90;;;;;;26065664;22;20251;-71
2022/03/12 05:38:45;;;;;;;0.20;0.00;;;13.00;99.90;;;;;;26070254;22;20188;-71
2022/03/12 05:48:52;;;;;;;0.20;0.10;;;12.80;99.90;;;;;;26069644;22;20218;-71
2022/03/12 05:58:56;;;;;;;0.20;0.10;;;12.30;99.90;;;;;;26068439;22;20164;-71
2022/03/12 06:09:01;;;;;;;0.20;0.10;;;11.60;99.90;;;;;;26069116;22;20195;-71
2022/03/12 06:19:04;;;;;;;0.20;0.00;;;11.50;99.90;;;;;;26068670;22;20184;-68
2022/03/12 06:29:13;;;;;;;0.20;0.10;;;11.60;99.90;;;;;;26073830;22;20203;-67
2022/03/12 06:39:17;;;;;;;0.20;0.00;;;11.70;99.90;;;;;;26076059;22;20192;-67
2022/03/12 06:49:22;;;;;;;0.20;0.10;;;11.60;99.90;;;;;;26077030;22;20199;-66
2022/03/12 06:59:26;;;;;;;0.20;0.00;;;11.50;99.90;;;;;;26048571;22;20173;-67
2022/03/12 07:09:31;;;;;;;0.20;0.00;;;11.50;99.90;;;;;;26074130;22;20196;-67
2022/03/12 07:19:35;;;;;;;0.20;0.00;;;11.60;99.90;;;;;;26070945;22;20190;-71
2022/03/12 07:29:40;;;;;;;0.20;0.00;;;11.50;99.90;;;;;;26070878;22;20190;-70
2022/03/12 07:39:45;;;;;;;0.20;0.00;;;11.70;99.90;;;;;;25944013;23;20157;-73
2022/03/12 07:49:50;;;;;;;0.20;0.10;;;11.80;99.90;;;;;;25943798;23;20185;-72
2022/03/12 07:59:54;;;;;;;0.20;0.10;;;11.90;99.90;;;;;;25914935;23;20183;-72
2022/03/12 08:09:59;;;;;;;0.20;0.00;;;12.10;99.90;;;;;;25942687;23;20195;-72
2022/03/12 08:20:07;;;;;;;0.20;0.00;;;12.20;99.90;;;;;;25943152;22;20200;-72
2022/03/12 08:30:14;;;;;;;0.20;0.00;;;12.30;99.90;;;;;;25947827;22;20192;-72
2022/03/12 08:40:18;;;;;;;0.20;0.10;;;12.40;99.90;;;;;;26040351;22;20247;-73
2022/03/12 08:50:24;;;;;;;0.20;0.00;;;12.70;99.90;;;;;;26066157;22;20210;-72
2022/03/12 09:00:28;;;;;;;0.20;0.10;;;12.40;99.90;;;;;;26066141;22;20164;-73
2022/03/12 09:10:34;;;;;;;0.20;0.10;;;12.50;99.90;;;;;;26040017;22;20212;-73
2022/03/12 09:20:45;;;;;;;0.20;0.00;;;12.60;99.90;;;;;;26065282;22;20180;-67
2022/03/12 09:30:52;;;;;;;0.20;0.10;;;12.70;99.90;;;;;;26036963;22;20291;-67
2022/03/12 09:40:56;;;;;;;0.20;0.10;;;12.50;99.90;;;;;;26064034;22;20180;-68
2022/03/12 09:51:02;;;;;;;0.20;0.00;;;12.60;99.90;;;;;;26065485;22;20203;-69
2022/03/12 10:01:06;;;;;;;0.20;0.00;;;12.60;99.90;;;;;;26040055;22;20195;-66
2022/03/12 10:11:11;;;;;;;0.57;0.50;;;12.50;99.90;;;;;;26071619;22;20184;-65
2022/03/12 10:21:16;;;;;;;0.20;0.00;;;12.40;99.90;;;;;;26071963;22;20298;-65
2022/03/12 10:31:21;;;;;;;0.20;0.00;;;12.60;99.90;;;;;;26071085;22;20255;-64
2022/03/12 10:41:31;;;;;;;0.20;0.10;;;12.50;99.90;;;;;;26071316;22;20164;-73
2022/03/12 10:51:37;;;;;;;0.20;0.07;;;12.80;99.90;;;;;;26071393;22;20191;-74
2022/03/12 11:01:50;;;;;;;0.20;0.00;;;12.90;99.90;;;;;;26070630;22;20172;-75
2022/03/12 11:12:00;;;;;;;0.20;0.00;;;13.00;99.90;;;;;;26067950;22;20164;-74
2022/03/12 11:22:12;;;;;;;0.20;0.00;;;12.80;99.90;;;;;;26043739;22;20188;-73
2022/03/12 11:32:18;;;;;;;0.20;0.00;;;12.80;99.90;;;;;;26042949;22;20193;-77
2022/03/12 11:42:23;;;;;;;0.20;0.00;;;12.80;99.90;;;;;;26070675;22;20188;-75
2022/03/12 11:53:09;;;;;;;0.20;0.03;;;12.70;99.90;;;;;;26066429;22;20181;-71
2022/03/12 12:03:53;;;;;;;0.20;0.00;;;12.90;99.90;;;;;;26059892;22;20266;-76
2022/03/12 12:14:40;;;;;;;0.20;0.10;;;13.40;99.90;;;;;;26062133;22;20164;-75
2022/03/12 12:25:25;;;;;;;0.20;0.00;;;13.30;99.90;;;;;;26065482;22;20188;-65
2022/03/12 12:36:15;;;;;;;0.20;0.00;;;13.50;99.90;;;;;;26059742;22;20207;-66
2022/03/12 12:47:00;;;;;;;0.20;0.00;;;13.20;99.90;;;;;;26059628;22;20243;-64
2022/03/12 12:57:47;;;;;;;0.20;0.00;;;13.20;99.90;;;;;;26064706;22;20220;-64
2022/03/12 13:44:07;;;;;;;0.20;0.00;;;12.70;99.90;;;;;;21316868;27;20535;-75
2022/03/12 13:55:00;;;;;;;0.20;0.00;;;12.70;99.90;;;;;;21314224;27;20218;-73
2022/03/12 14:05:45;;;;;;;0.20;0.00;;;12.70;99.90;;;;;;21307267;27;20190;-70
2022/03/12 14:16:30;;;;;;;0.20;0.00;;;12.90;99.90;;;;;;21313846;27;20211;-71
2022/03/12 14:27:17;;;;;;;0.20;0.00;;;12.50;99.90;;;;;;21341810;27;20229;-72
2022/03/12 14:38:02;;;;;;;0.20;0.00;;;12.60;99.90;;;;;;21379249;27;20230;-70
2022/03/12 14:48:49;;;;;;;0.20;0.00;;;12.80;99.90;;;;;;21338834;27;20193;-72
2022/03/12 14:59:35;;;;;;;0.20;0.00;;;13.20;99.90;;;;;;21337122;27;20214;-76
2022/03/12 15:10:22;;;;;;;0.20;0.10;;;13.50;99.90;;;;;;21334684;27;20221;-77
2022/03/12 15:21:16;;;;;;;0.20;0.00;;;13.40;99.90;;;;;;21337499;27;20230;-72
2022/03/12 15:32:16;;;;;;;0.20;0.03;;;13.20;99.90;;;;;;21336974;27;21037;-72
2022/03/12 15:43:00;;;;;;;0.20;0.00;;;12.90;99.90;;;;;;21419436;27;20234;-74
2022/03/12 15:53:46;;;;;;;0.20;0.00;;;12.90;99.90;;;;;;21417409;27;20205;-72
2022/03/12 16:04:31;;;;;;;0.20;0.00;;;12.80;99.90;;;;;;21408045;27;20254;-71
2022/03/12 16:15:19;;;;;;;0.20;0.00;;;12.70;99.90;;;;;;21416008;27;20224;-67
2022/03/12 16:26:04;;;;;;;0.20;0.00;;;12.00;99.90;;;;;;21415400;27;20206;-68
2022/03/12 16:36:51;;;;;;;0.20;0.00;;;12.10;99.90;;;;;;21415875;27;20423;-67
2022/03/12 16:47:35;;;;;;;0.20;0.00;;;12.00;99.90;;;;;;21413730;27;20188;-66
2022/03/12 16:58:21;;;;;;;0.20;0.10;;;12.10;99.90;;;;;;21412939;27;20224;-69
2022/03/12 17:09:05;;;;;;;0.20;0.00;;;12.40;99.90;;;;;;21410775;27;20194;-69
2022/03/12 17:19:51;;;;;;;0.20;0.00;;;12.50;99.90;;;;;;21411713;27;20209;-70
2022/03/12 17:30:36;;;;;;;0.20;0.00;;;12.60;99.90;;;;;;21409797;27;20208;-70
2022/03/12 17:41:24;;;;;;;0.20;0.00;;;12.60;99.90;;;;;;21411077;27;20233;-68
2022/03/12 17:52:09;;;;;;;4.50;4.23;;;12.40;99.90;;;;;;21411049;27;20194;-74
2022/03/12 18:02:56;;;;;;;0.20;0.10;;;12.20;99.90;;;;;;21409370;27;20221;-66
2022/03/12 18:13:49;;;;;;;0.20;0.00;;;12.00;99.90;;;;;;21380166;27;20437;-66
2022/03/12 18:23:54;;;;;;;0.20;0.00;;;12.00;99.90;;;;;;21400002;27;20218;-77
2022/03/12 18:33:58;;;;;;;0.20;0.10;;;11.80;99.90;;;;;;21165426;27;20233;-79
2022/03/12 18:44:05;;;;;;;0.20;0.10;;;11.90;99.90;;;;;;21059186;28;20250;-76
2022/03/12 18:54:09;;;;;;;0.20;0.10;;;11.90;99.90;;;;;;21057351;28;20206;-69
2022/03/12 19:04:14;;;;;;;0.20;0.10;;;11.90;99.90;;;;;;21070802;28;20258;-68
2022/03/12 19:14:19;;;;;;;0.20;0.10;;;11.90;99.90;;;;;;21068123;28;20196;-68
2022/03/12 19:24:24;;;;;;;0.20;0.00;;;12.00;99.90;;;;;;21056224;28;20231;-68
2022/03/12 19:34:28;;;;;;;0.20;0.10;;;12.00;99.90;;;;;;21053700;28;20220;-68
2022/03/12 19:44:34;;;;;;;0.20;0.10;;;12.00;99.90;;;;;;21057240;28;20218;-68
2022/03/12 19:54:38;;;;;;;0.20;0.10;;;11.90;99.90;;;;;;21044969;28;20268;-65
2022/03/12 20:04:43;;;;;;;0.60;0.60;;;11.80;99.90;;;;;;21045037;28;20223;-65
2022/03/12 20:14:52;;;;;;;0.20;0.10;;;11.60;99.90;;;;;;21048429;28;20189;-65
2022/03/12 20:24:58;;;;;;;0.20;0.10;;;11.50;99.90;;;;;;21030870;28;20226;-66
2022/03/12 20:35:03;;;;;;;0.20;0.10;;;11.50;99.90;;;;;;21031663;28;20384;-64
2022/03/12 20:45:10;;;;;;;0.20;0.10;;;11.40;99.90;;;;;;21048719;28;20185;-65
2022/03/12 20:55:16;;;;;;;0.20;0.10;;;11.50;99.90;;;;;;21043991;28;20220;-64
2022/03/12 21:05:26;;;;;;;0.20;0.10;;;11.50;99.90;;;;;;21030506;28;20199;-66
2022/03/12 21:15:31;;;;;;;0.20;0.10;;;11.40;99.90;;;;;;21047976;28;20212;-65
2022/03/12 21:25:37;;;;;;;0.20;0.10;;;11.40;99.90;;;;;;21043688;28;20276;-75
2022/03/12 21:35:41;;;;;;;0.20;0.00;;;11.20;99.90;;;;;;21029397;28;20238;-75
2022/03/12 21:45:50;;;;;;;0.20;0.10;;;11.20;99.90;;;;;;21057501;28;20431;-75
2022/03/12 21:55:56;;;;;;;0.20;0.10;;;11.10;99.90;;;;;;21046420;28;20280;-77
2022/03/12 22:06:02;;;;;;;0.20;0.00;;;10.90;99.90;;;;;;21063955;28;20207;-73
2022/03/12 22:16:06;;;;;;;2.93;2.63;;;10.90;99.90;;;;;;21073920;28;20227;-76
2022/03/12 22:26:11;;;;;;;0.20;0.10;;;10.80;99.90;;;;;;21062800;28;20231;-76
2022/03/12 22:36:15;;;;;;;0.20;0.00;;;10.70;99.90;;;;;;21061074;28;21139;-74
2022/03/12 22:46:27;;;;;;;0.20;0.00;;;10.60;99.90;;;;;;21059454;28;20276;-73
2022/03/12 22:56:31;;;;;;;0.20;0.10;;;10.30;99.90;;;;;;21040651;28;20292;-74
2022/03/12 23:16:58;;;;;;;0.20;0.00;;;10.30;99.90;;;;;;21060734;28;20205;-76
2022/03/12 23:27:03;;;;;;;0.20;0.00;;;10.40;99.90;;;;;;21056814;28;20239;-75
2022/03/12 23:37:08;;;;;;;0.20;0.10;;;10.60;99.90;;;;;;21054835;28;20225;-74
2022/03/12 23:47:13;;;;;;;0.20;0.00;;;10.70;99.90;;;;;;21058666;28;20197;-73
2022/03/12 23:57:19;;;;;;;0.20;0.10;;;10.80;99.90;;;;;;21057124;28;20313;-71
